Time;durP1;ratioP1;P1;durP2;ratioP2;P2;SDS_P1;SDS_P2;PMS_P1;PMS_P2;Temp;Humidity;BMP_temperature;BMP_pressure;BME280_temperature;BME280_humidity;BME280_pressure;Samples;Min_cycle;Max_cycle;Signal;HPM_P1;HPM_P2
2022/12/19 00:00:49;;;;;;;1.08;0.20;;;;;;;;;;5106373;28;20036;-74
2022/12/19 00:03:19;;;;;;;0.55;0.20;;;;;;;;;;5105280;28;20051;-75
2022/12/19 00:05:49;;;;;;;2.45;0.50;;;;;;;;;;5106690;28;20039;-74
2022/12/19 00:08:19;;;;;;;1.38;0.15;;;;;;;;;;5106333;28;20050;-74
2022/12/19 00:10:57;;;;;;;3.65;0.20;;;;;;;;;;5106032;28;20051;-77
2022/12/19 00:13:31;;;;;;;1.38;0.32;;;;;;;;;;5107359;28;20046;-74
2022/12/19 00:16:14;;;;;;;1.55;0.30;;;;;;;;;;5106686;28;20520;-74
2022/12/19 00:18:48;;;;;;;0.50;0.30;;;;;;;;;;5099321;28;20534;-73
2022/12/19 00:21:26;;;;;;;1.48;0.10;;;;;;;;;;5098371;28;20051;-74
2022/12/19 00:23:56;;;;;;;2.05;0.25;;;;;;;;;;5098064;28;20047;-73
2022/12/19 00:26:30;;;;;;;2.22;0.50;;;;;;;;;;5098874;28;20039;-73
2022/12/19 00:29:06;;;;;;;2.13;0.52;;;;;;;;;;5080535;28;20071;-74
2022/12/19 00:31:42;;;;;;;1.98;0.32;;;;;;;;;;5098505;28;20047;-74
2022/12/19 00:34:15;;;;;;;4.47;0.32;;;;;;;;;;5097383;28;20035;-74
2022/12/19 00:36:45;;;;;;;2.53;0.20;;;;;;;;;;5099143;28;20978;-72
2022/12/19 00:39:15;;;;;;;2.17;0.30;;;;;;;;;;5089491;28;20050;-75
2022/12/19 00:41:46;;;;;;;0.95;0.40;;;;;;;;;;5070600;28;20052;-74
2022/12/19 00:44:16;;;;;;;1.08;0.50;;;;;;;;;;5070452;28;20059;-73
2022/12/19 00:46:46;;;;;;;1.27;0.32;;;;;;;;;;5088275;28;20067;-75
2022/12/19 00:49:21;;;;;;;0.98;0.50;;;;;;;;;;5088821;28;20044;-74
2022/12/19 00:51:50;;;;;;;4.03;0.40;;;;;;;;;;5088339;28;20052;-72
2022/12/19 00:54:20;;;;;;;2.78;0.50;;;;;;;;;;5089361;28;20505;-73
2022/12/19 00:56:51;;;;;;;2.17;0.47;;;;;;;;;;5097003;28;20070;-75
2022/12/19 00:59:23;;;;;;;2.17;0.47;;;;;;;;;;5081785;28;20078;-74
2022/12/19 01:01:57;;;;;;;3.47;0.60;;;;;;;;;;5098901;28;20059;-73
2022/12/19 01:04:27;;;;;;;1.83;0.20;;;;;;;;;;5088565;28;20051;-73
2022/12/19 01:06:59;;;;;;;3.30;0.85;;;;;;;;;;5097594;28;20047;-75
2022/12/19 01:09:35;;;;;;;0.98;0.60;;;;;;;;;;5077999;28;20052;-74
2022/12/19 01:14:55;;;;;;;3.90;0.60;;;;;;;;;;5099255;28;20032;-74
2022/12/19 01:17:35;;;;;;;2.30;0.68;;;;;;;;;;5099515;28;20040;-74
2022/12/19 01:20:17;;;;;;;2.85;0.50;;;;;;;;;;5079640;28;20393;-74
2022/12/19 01:22:58;;;;;;;2.58;0.52;;;;;;;;;;5099032;28;20043;-74
2022/12/19 01:25:29;;;;;;;1.85;0.40;;;;;;;;;;5098505;28;20051;-73
2022/12/19 01:27:58;;;;;;;5.35;0.90;;;;;;;;;;5081098;28;20047;-74
2022/12/19 01:30:30;;;;;;;0.50;0.13;;;;;;;;;;5077961;28;20059;-73
2022/12/19 01:33:01;;;;;;;1.52;0.47;;;;;;;;;;5097292;28;20040;-74
2022/12/19 01:35:31;;;;;;;2.03;0.50;;;;;;;;;;5062570;28;20055;-74
2022/12/19 01:38:04;;;;;;;1.48;0.20;;;;;;;;;;5098920;28;20528;-74
2022/12/19 01:40:37;;;;;;;3.20;0.40;;;;;;;;;;5096554;28;20036;-73
2022/12/19 01:43:13;;;;;;;0.40;0.22;;;;;;;;;;5097674;28;20035;-74
2022/12/19 01:45:45;;;;;;;1.10;0.70;;;;;;;;;;5097212;28;20044;-75
2022/12/19 01:48:42;;;;;;;4.78;0.35;;;;;;;;;;5095800;28;20047;-74
2022/12/19 01:51:17;;;;;;;1.73;0.50;;;;;;;;;;5098106;28;20063;-73
2022/12/19 01:53:59;;;;;;;1.58;0.60;;;;;;;;;;5097010;28;20043;-72
2022/12/19 01:56:36;;;;;;;0.85;0.22;;;;;;;;;;5079327;28;20055;-74
2022/12/19 01:59:11;;;;;;;2.70;0.63;;;;;;;;;;5078681;28;20051;-74
2022/12/19 02:01:45;;;;;;;7.60;0.80;;;;;;;;;;5078982;28;20047;-73
2022/12/19 02:04:26;;;;;;;1.23;0.25;;;;;;;;;;5097384;28;20055;-74
2022/12/19 02:07:04;;;;;;;1.17;0.45;;;;;;;;;;5078776;28;20036;-73
2022/12/19 02:09:54;;;;;;;0.73;0.65;;;;;;;;;;5092554;28;20520;-74
2022/12/19 02:12:39;;;;;;;3.33;0.57;;;;;;;;;;5090277;28;20047;-74
2022/12/19 02:15:11;;;;;;;3.08;0.80;;;;;;;;;;5089174;28;20048;-72
2022/12/19 02:17:49;;;;;;;0.98;0.32;;;;;;;;;;5089219;28;20052;-71
2022/12/19 02:21:00;;;;;;;5.40;0.80;;;;;;;;;;5089275;28;20051;-74
2022/12/19 02:23:38;;;;;;;1.52;0.30;;;;;;;;;;5089255;28;20513;-74
2022/12/19 02:26:47;;;;;;;6.00;1.08;;;;;;;;;;5089035;28;20047;-72
2022/12/19 02:29:24;;;;;;;4.03;0.60;;;;;;;;;;5077532;28;20064;-73
2022/12/19 02:32:03;;;;;;;2.08;0.47;;;;;;;;;;5089026;28;20516;-73
2022/12/19 02:35:11;;;;;;;5.00;0.60;;;;;;;;;;5089280;28;20051;-73
2022/12/19 02:37:53;;;;;;;4.32;0.73;;;;;;;;;;5088246;28;20055;-73
2022/12/19 02:40:34;;;;;;;4.30;0.88;;;;;;;;;;5088519;28;20397;-74
2022/12/19 02:43:08;;;;;;;2.97;0.70;;;;;;;;;;5088732;28;20501;-72
2022/12/19 02:45:40;;;;;;;4.47;0.70;;;;;;;;;;5088559;28;20047;-72
2022/12/19 02:48:11;;;;;;;3.25;0.93;;;;;;;;;;5088723;28;20616;-75
2022/12/19 02:50:47;;;;;;;2.42;0.60;;;;;;;;;;5088101;28;20048;-73
2022/12/19 02:53:19;;;;;;;1.50;0.43;;;;;;;;;;5088275;28;20397;-73
2022/12/19 02:56:05;;;;;;;2.97;0.82;;;;;;;;;;5088144;28;20055;-73
2022/12/19 02:58:51;;;;;;;3.25;0.63;;;;;;;;;;5088247;28;20058;-73
2022/12/19 03:01:40;;;;;;;2.03;0.68;;;;;;;;;;5088502;28;20516;-73
2022/12/19 03:04:16;;;;;;;;;;;;;;;;;;5107251;28;20378;-74
2022/12/19 03:07:23;;;;;;;1.45;0.40;;;;;;;;;;5087593;28;19930;-73
2022/12/19 03:10:04;;;;;;;1.67;0.63;;;;;;;;;;5072918;28;20669;-74
2022/12/19 03:12:42;;;;;;;0.40;0.40;;;;;;;;;;5106741;28;20042;-73
2022/12/19 03:15:13;;;;;;;3.08;0.52;;;;;;;;;;5107022;28;20058;-73
2022/12/19 03:17:44;;;;;;;1.10;0.65;;;;;;;;;;5107179;28;20043;-73
2022/12/19 03:20:39;;;;;;;1.65;0.25;;;;;;;;;;5107481;28;20450;-73
2022/12/19 03:23:09;;;;;;;2.05;0.55;;;;;;;;;;5107115;28;20042;-73
2022/12/19 03:25:43;;;;;;;2.70;0.60;;;;;;;;;;5106574;28;20496;-73
2022/12/19 03:28:22;;;;;;;10.95;1.25;;;;;;;;;;5106900;28;20043;-72
2022/12/19 03:30:54;;;;;;;2.08;0.55;;;;;;;;;;5107069;28;20109;-73
2022/12/19 03:33:26;;;;;;;1.50;0.50;;;;;;;;;;5106724;28;20512;-72
2022/12/19 03:36:00;;;;;;;3.72;0.60;;;;;;;;;;5106230;28;20044;-73
2022/12/19 03:38:32;;;;;;;1.73;0.32;;;;;;;;;;5106995;28;20036;-74
2022/12/19 03:41:05;;;;;;;1.73;0.30;;;;;;;;;;5106900;28;20081;-74
2022/12/19 03:43:36;;;;;;;2.65;0.63;;;;;;;;;;5107168;28;20036;-73
2022/12/19 03:46:33;;;;;;;2.83;0.73;;;;;;;;;;5106552;28;20047;-73
2022/12/19 03:49:03;;;;;;;4.05;0.80;;;;;;;;;;5106223;28;20050;-73
2022/12/19 03:51:53;;;;;;;2.45;0.77;;;;;;;;;;5110624;28;20052;-74
2022/12/19 03:54:35;;;;;;;3.78;0.70;;;;;;;;;;5092402;28;20572;-73
2022/12/19 03:57:08;;;;;;;6.63;0.45;;;;;;;;;;5110224;28;20050;-75
2022/12/19 03:59:45;;;;;;;4.78;0.77;;;;;;;;;;5110261;28;20036;-71
2022/12/19 04:02:18;;;;;;;4.32;0.50;;;;;;;;;;5110097;28;20428;-73
2022/12/19 04:05:00;;;;;;;3.05;0.57;;;;;;;;;;5110269;28;20043;-73
2022/12/19 04:07:31;;;;;;;2.17;0.20;;;;;;;;;;5110582;28;20056;-73
2022/12/19 04:10:05;;;;;;;6.13;0.50;;;;;;;;;;5110754;28;20035;-73
2022/12/19 04:12:41;;;;;;;3.83;0.40;;;;;;;;;;5110241;28;20039;-73
2022/12/19 04:15:13;;;;;;;1.35;0.30;;;;;;;;;;5110133;28;20738;-74
2022/12/19 04:17:53;;;;;;;3.08;0.63;;;;;;;;;;5091195;28;20055;-74
2022/12/19 04:20:27;;;;;;;5.63;0.60;;;;;;;;;;5109471;28;20490;-73
2022/12/19 04:23:07;;;;;;;3.63;0.77;;;;;;;;;;5109683;28;20044;-74
2022/12/19 04:25:48;;;;;;;4.50;1.05;;;;;;;;;;5109282;28;20040;-74
2022/12/19 04:28:25;;;;;;;4.30;0.60;;;;;;;;;;5109948;28;20043;-73
2022/12/19 04:30:56;;;;;;;5.63;0.80;;;;;;;;;;5109524;28;20490;-74
2022/12/19 04:33:27;;;;;;;3.38;0.63;;;;;;;;;;5110217;28;20042;-73
2022/12/19 04:35:57;;;;;;;2.13;0.57;;;;;;;;;;5109661;28;20381;-74
2022/12/19 04:38:27;;;;;;;5.28;0.93;;;;;;;;;;5109685;28;20469;-73
2022/12/19 04:40:57;;;;;;;4.97;0.80;;;;;;;;;;5110053;28;20043;-73
2022/12/19 04:43:27;;;;;;;3.50;0.77;;;;;;;;;;5108931;28;20047;-73
2022/12/19 04:45:56;;;;;;;3.03;0.45;;;;;;;;;;5109346;28;20059;-73
2022/12/19 04:48:27;;;;;;;2.63;0.88;;;;;;;;;;5091293;28;20149;-72
2022/12/19 04:50:57;;;;;;;1.60;0.85;;;;;;;;;;5109278;28;20048;-73
2022/12/19 04:53:27;;;;;;;3.40;0.60;;;;;;;;;;5109430;28;20035;-74
2022/12/19 04:56:05;;;;;;;8.23;0.80;;;;;;;;;;5108902;28;20047;-74
2022/12/19 04:58:35;;;;;;;4.63;0.60;;;;;;;;;;5109763;28;20048;-74
2022/12/19 05:01:08;;;;;;;1.33;0.50;;;;;;;;;;5108272;28;20042;-74
2022/12/19 05:03:38;;;;;;;2.70;0.60;;;;;;;;;;5090573;28;20050;-73
2022/12/19 05:06:12;;;;;;;3.28;1.00;;;;;;;;;;5109343;28;20048;-73
2022/12/19 05:08:43;;;;;;;4.00;0.88;;;;;;;;;;5109270;28;20047;-74
2022/12/19 05:11:15;;;;;;;4.82;0.60;;;;;;;;;;5108283;28;20062;-74
2022/12/19 05:13:48;;;;;;;3.00;0.70;;;;;;;;;;5109103;28;20043;-74
2022/12/19 05:16:18;;;;;;;2.30;0.30;;;;;;;;;;5108675;28;20047;-73
2022/12/19 05:18:50;;;;;;;1.75;0.63;;;;;;;;;;5108936;28;20042;-73
2022/12/19 05:21:20;;;;;;;6.53;1.55;;;;;;;;;;5109324;28;20040;-74
2022/12/19 05:23:51;;;;;;;6.20;0.70;;;;;;;;;;5108326;28;20043;-73
2022/12/19 05:26:21;;;;;;;5.75;1.05;;;;;;;;;;5108509;28;20501;-74
2022/12/19 05:28:52;;;;;;;4.25;0.60;;;;;;;;;;5108350;28;20047;-74
2022/12/19 05:31:21;;;;;;;4.05;0.68;;;;;;;;;;5108501;28;20035;-72
2022/12/19 05:33:51;;;;;;;6.13;0.85;;;;;;;;;;5108893;28;20059;-71
2022/12/19 05:36:21;;;;;;;3.50;0.85;;;;;;;;;;5108381;28;20505;-71
2022/12/19 05:38:58;;;;;;;4.28;0.93;;;;;;;;;;5108606;28;20051;-71
2022/12/19 05:41:28;;;;;;;7.32;1.10;;;;;;;;;;5073204;28;20051;-71
2022/12/19 05:43:58;;;;;;;4.80;0.85;;;;;;;;;;5090349;28;20050;-72
2022/12/19 05:46:28;;;;;;;3.83;0.77;;;;;;;;;;5108356;28;20040;-72
2022/12/19 05:48:58;;;;;;;7.55;0.80;;;;;;;;;;5107648;28;20406;-72
2022/12/19 05:51:28;;;;;;;6.88;1.00;;;;;;;;;;5108058;28;20048;-72
2022/12/19 05:54:00;;;;;;;4.40;1.20;;;;;;;;;;5108126;28;20132;-72
2022/12/19 05:56:30;;;;;;;5.05;1.00;;;;;;;;;;5107239;28;20659;-71
2022/12/19 05:59:00;;;;;;;4.90;0.90;;;;;;;;;;5106996;28;20059;-72
2022/12/19 06:01:31;;;;;;;3.50;0.50;;;;;;;;;;5107450;28;20046;-72
2022/12/19 06:04:03;;;;;;;2.25;0.98;;;;;;;;;;5108346;28;20036;-72
2022/12/19 06:06:33;;;;;;;3.47;0.57;;;;;;;;;;5090848;28;20054;-72
2022/12/19 06:09:03;;;;;;;4.22;0.77;;;;;;;;;;5108661;28;20047;-71
2022/12/19 06:11:33;;;;;;;2.42;0.60;;;;;;;;;;5106986;28;20050;-73
2022/12/19 06:14:03;;;;;;;6.85;1.63;;;;;;;;;;5108126;28;20039;-72
2022/12/19 06:16:34;;;;;;;1.77;0.50;;;;;;;;;;5107883;28;20051;-72
2022/12/19 06:19:03;;;;;;;2.05;0.75;;;;;;;;;;5108126;28;20039;-73
2022/12/19 06:21:33;;;;;;;3.33;0.52;;;;;;;;;;5107185;28;20044;-74
2022/12/19 06:24:13;;;;;;;5.25;0.70;;;;;;;;;;5088393;28;20158;-73
2022/12/19 06:37:20;;;;;;;2.58;0.57;;;;;;;;;;5124459;27;20491;-76
2022/12/19 06:39:52;;;;;;;5.00;0.90;;;;;;;;;;5124723;28;20043;-75
2022/12/19 06:42:21;;;;;;;3.65;0.50;;;;;;;;;;5123974;28;20527;-75
2022/12/19 06:44:53;;;;;;;4.28;0.63;;;;;;;;;;5124140;28;20056;-75
2022/12/19 06:47:24;;;;;;;5.13;0.88;;;;;;;;;;5115420;28;20052;-73
2022/12/19 06:49:54;;;;;;;5.80;0.70;;;;;;;;;;5104017;28;20062;-76
2022/12/19 06:52:24;;;;;;;3.42;0.55;;;;;;;;;;5104362;28;20051;-74
2022/12/19 06:54:54;;;;;;;4.40;0.73;;;;;;;;;;5103446;28;20052;-74
2022/12/19 06:57:24;;;;;;;8.65;0.80;;;;;;;;;;5103823;28;20052;-73
2022/12/19 06:59:54;;;;;;;5.40;0.45;;;;;;;;;;5104225;28;20047;-73
2022/12/19 07:02:30;;;;;;;4.72;0.73;;;;;;;;;;5103801;28;20517;-74
2022/12/19 07:05:05;;;;;;;1.92;0.70;;;;;;;;;;5103315;28;20059;-73
2022/12/19 07:07:35;;;;;;;3.38;0.70;;;;;;;;;;5102465;28;20043;-73
2022/12/19 07:10:06;;;;;;;4.10;0.70;;;;;;;;;;5103733;28;20044;-73
2022/12/19 07:12:37;;;;;;;2.38;0.55;;;;;;;;;;5103956;28;20367;-73
2022/12/19 07:15:07;;;;;;;2.80;0.63;;;;;;;;;;5102859;28;20417;-74
2022/12/19 07:17:38;;;;;;;2.35;0.50;;;;;;;;;;5103177;28;20048;-73
2022/12/19 07:20:08;;;;;;;3.30;0.45;;;;;;;;;;5102854;28;20047;-74
2022/12/19 07:22:38;;;;;;;4.85;0.40;;;;;;;;;;5103271;28;20044;-73
2022/12/19 07:25:09;;;;;;;3.92;0.70;;;;;;;;;;5100605;28;20044;-73
2022/12/19 07:27:40;;;;;;;3.55;0.80;;;;;;;;;;5083213;28;20406;-73
2022/12/19 07:30:10;;;;;;;3.25;0.30;;;;;;;;;;5083156;28;20040;-74
2022/12/19 07:32:40;;;;;;;2.22;0.40;;;;;;;;;;5082350;28;20493;-74
2022/12/19 07:35:10;;;;;;;2.53;0.40;;;;;;;;;;5082824;28;20052;-74
2022/12/19 07:37:40;;;;;;;0.73;0.20;;;;;;;;;;5072998;28;20045;-73
2022/12/19 07:40:11;;;;;;;1.58;0.35;;;;;;;;;;5069128;28;20044;-73
2022/12/19 07:42:41;;;;;;;3.30;0.40;;;;;;;;;;5067875;28;20446;-74
2022/12/19 07:45:11;;;;;;;1.92;0.50;;;;;;;;;;5068799;28;20052;-75
2022/12/19 07:47:41;;;;;;;2.50;0.32;;;;;;;;;;5068604;28;20071;-74
2022/12/19 07:50:12;;;;;;;1.42;0.30;;;;;;;;;;5068843;28;20041;-74
2022/12/19 07:52:42;;;;;;;2.72;0.50;;;;;;;;;;5069089;28;20392;-74
2022/12/19 07:55:12;;;;;;;1.15;0.13;;;;;;;;;;5069062;28;20041;-75
2022/12/19 07:57:43;;;;;;;0.40;0.20;;;;;;;;;;5068917;28;20055;-74
2022/12/19 08:00:13;;;;;;;2.42;0.40;;;;;;;;;;5068689;28;20090;-74
2022/12/19 08:02:44;;;;;;;2.25;0.40;;;;;;;;;;5068512;28;20048;-75
2022/12/19 08:05:13;;;;;;;1.98;0.47;;;;;;;;;;5069523;28;20044;-75
2022/12/19 08:07:44;;;;;;;2.05;0.40;;;;;;;;;;5068694;28;20047;-75
2022/12/19 08:10:14;;;;;;;3.55;0.63;;;;;;;;;;5068416;28;20052;-75
2022/12/19 08:12:45;;;;;;;4.70;0.40;;;;;;;;;;5067043;28;20048;-74
2022/12/19 08:15:15;;;;;;;1.30;0.40;;;;;;;;;;5068391;28;20052;-74
2022/12/19 08:17:45;;;;;;;2.72;0.47;;;;;;;;;;5068590;28;20057;-75
2022/12/19 08:20:14;;;;;;;0.90;0.40;;;;;;;;;;5068537;28;20045;-74
2022/12/19 08:22:44;;;;;;;2.85;0.50;;;;;;;;;;5068344;28;20049;-75
2022/12/19 08:25:14;;;;;;;0.82;0.43;;;;;;;;;;5068985;28;20048;-74
2022/12/19 08:27:44;;;;;;;2.13;0.30;;;;;;;;;;5068485;28;20059;-75
2022/12/19 08:30:14;;;;;;;1.55;0.40;;;;;;;;;;5068389;28;20075;-75
2022/12/19 08:32:44;;;;;;;0.45;0.30;;;;;;;;;;5068169;28;20059;-74
2022/12/19 08:35:14;;;;;;;2.08;0.28;;;;;;;;;;5067665;28;20056;-74
2022/12/19 08:37:44;;;;;;;0.80;0.28;;;;;;;;;;5068530;28;20047;-74
2022/12/19 08:40:14;;;;;;;2.05;0.47;;;;;;;;;;5068330;28;20404;-76
2022/12/19 08:42:44;;;;;;;1.30;0.40;;;;;;;;;;5068141;28;20067;-74
2022/12/19 08:45:16;;;;;;;1.55;0.32;;;;;;;;;;5067456;28;20526;-75
2022/12/19 08:47:45;;;;;;;0.75;0.25;;;;;;;;;;5067728;28;20049;-74
2022/12/19 08:50:15;;;;;;;0.98;0.20;;;;;;;;;;5067097;28;20060;-74
2022/12/19 08:52:45;;;;;;;1.85;0.38;;;;;;;;;;5065968;28;20057;-75
2022/12/19 08:55:15;;;;;;;0.85;0.25;;;;;;;;;;5067307;28;20048;-74
2022/12/19 08:57:45;;;;;;;5.22;0.73;;;;;;;;;;5067288;28;20064;-78
2022/12/19 09:00:15;;;;;;;2.08;0.40;;;;;;;;;;5067405;28;20049;-75
2022/12/19 09:02:47;;;;;;;2.28;0.40;;;;;;;;;;5068046;28;20048;-76
2022/12/19 09:05:17;;;;;;;1.20;0.60;;;;;;;;;;5067541;28;20051;-75
2022/12/19 09:08:07;;;;;;;2.42;0.60;;;;;;;;;;5067395;28;20119;-75
2022/12/19 09:10:39;;;;;;;2.63;0.50;;;;;;;;;;5067321;28;20048;-75
2022/12/19 09:13:08;;;;;;;0.85;0.30;;;;;;;;;;5067357;28;20060;-74
2022/12/19 09:15:39;;;;;;;1.70;0.35;;;;;;;;;;5066466;28;20052;-75
2022/12/19 09:18:10;;;;;;;1.92;0.40;;;;;;;;;;5067351;28;20052;-74
2022/12/19 09:20:45;;;;;;;2.13;0.50;;;;;;;;;;5065240;28;20048;-74
2022/12/19 09:23:15;;;;;;;0.30;0.30;;;;;;;;;;5066852;28;20044;-74
2022/12/19 09:25:45;;;;;;;0.98;0.20;;;;;;;;;;5067210;28;20049;-75
2022/12/19 09:28:16;;;;;;;1.17;0.50;;;;;;;;;;5067000;28;20043;-74
2022/12/19 09:31:01;;;;;;;1.33;0.40;;;;;;;;;;5066575;28;20056;-75
2022/12/19 09:33:34;;;;;;;0.50;0.22;;;;;;;;;;5067416;28;20048;-74
2022/12/19 09:36:18;;;;;;;4.35;0.43;;;;;;;;;;5066687;28;20538;-76
2022/12/19 09:38:48;;;;;;;5.90;0.60;;;;;;;;;;5067173;28;20047;-75
2022/12/19 09:41:37;;;;;;;1.15;0.50;;;;;;;;;;5066812;28;20068;-73
2022/12/19 09:44:22;;;;;;;6.40;0.80;;;;;;;;;;5065689;28;20055;-78
2022/12/19 09:47:09;;;;;;;0.90;0.22;;;;;;;;;;5066846;28;20044;-74
2022/12/19 09:49:44;;;;;;;1.17;0.35;;;;;;;;;;5067138;28;20047;-75
2022/12/19 09:52:34;;;;;;;2.03;1.27;;;;;;;;;;5064968;28;20060;-77
2022/12/19 09:55:20;;;;;;;1.40;0.30;;;;;;;;;;5067053;28;20380;-74
2022/12/19 09:58:20;;;;;;;4.50;0.40;;;;;;;;;;5065729;28;20048;-78
2022/12/19 10:00:58;;;;;;;3.58;0.32;;;;;;;;;;5066211;28;20037;-76
2022/12/19 10:03:49;;;;;;;2.63;0.40;;;;;;;;;;5066604;28;20044;-75
2022/12/19 10:06:22;;;;;;;1.83;0.35;;;;;;;;;;5059486;28;20060;-75
2022/12/19 10:09:18;;;;;;;1.20;0.30;;;;;;;;;;5067297;28;20135;-74
2022/12/19 10:12:37;;;;;;;2.00;0.25;;;;;;;;;;5067046;28;20499;-75
2022/12/19 10:15:42;;;;;;;1.50;0.40;;;;;;;;;;5066586;28;20044;-75
2022/12/19 10:18:36;;;;;;;4.28;0.73;;;;;;;;;;5066132;28;20044;-75
2022/12/19 10:21:21;;;;;;;1.85;0.35;;;;;;;;;;5066302;28;20053;-74
2022/12/19 10:24:42;;;;;;;3.33;0.25;;;;;;;;;;5067078;28;20044;-75
2022/12/19 10:27:51;;;;;;;1.15;0.43;;;;;;;;;;5053387;28;20052;-75
2022/12/19 10:30:34;;;;;;;4.70;1.05;;;;;;;;;;5065308;28;20406;-75
2022/12/19 10:33:22;;;;;;;1.27;0.30;;;;;;;;;;5066269;28;20515;-75
2022/12/19 10:35:56;;;;;;;0.90;0.30;;;;;;;;;;5066227;28;20083;-75
2022/12/19 10:39:02;;;;;;;2.80;0.25;;;;;;;;;;5066107;28;20052;-75
2022/12/19 10:41:33;;;;;;;2.25;0.35;;;;;;;;;;5066522;28;20628;-75
2022/12/19 10:44:14;;;;;;;1.05;0.22;;;;;;;;;;5066329;28;20048;-74
2022/12/19 10:46:47;;;;;;;1.58;0.40;;;;;;;;;;5066704;28;20041;-76
2022/12/19 10:49:27;;;;;;;3.22;0.38;;;;;;;;;;5065784;28;20522;-74
2022/12/19 10:52:08;;;;;;;1.35;0.38;;;;;;;;;;5066350;28;20045;-75
2022/12/19 10:54:38;;;;;;;1.42;0.22;;;;;;;;;;5065943;28;20044;-81
2022/12/19 10:57:26;;;;;;;0.63;0.30;;;;;;;;;;5066408;28;20048;-75
2022/12/19 10:59:58;;;;;;;1.70;0.40;;;;;;;;;;5066163;28;20048;-78
2022/12/19 11:02:43;;;;;;;0.93;0.22;;;;;;;;;;5065806;28;20049;-75
2022/12/19 11:05:28;;;;;;;2.10;0.55;;;;;;;;;;5065865;28;20045;-75
2022/12/19 11:08:02;;;;;;;2.55;0.30;;;;;;;;;;5066091;28;20052;-75
2022/12/19 11:10:41;;;;;;;2.08;0.47;;;;;;;;;;5066513;28;20052;-76
2022/12/19 11:13:34;;;;;;;1.65;0.40;;;;;;;;;;5069040;28;20517;-83
2022/12/19 11:16:37;;;;;;;1.42;0.60;;;;;;;;;;5070008;28;20130;-75
2022/12/19 11:19:27;;;;;;;0.82;0.40;;;;;;;;;;5069841;28;20053;-75
2022/12/19 11:22:30;;;;;;;1.30;0.30;;;;;;;;;;5069511;28;20506;-74
2022/12/19 11:25:32;;;;;;;2.58;0.47;;;;;;;;;;5069813;28;20051;-76
2022/12/19 11:28:26;;;;;;;3.97;0.40;;;;;;;;;;5069100;28;20053;-82
2022/12/19 11:31:23;;;;;;;2.15;0.40;;;;;;;;;;5069418;28;20514;-75
2022/12/19 11:34:18;;;;;;;3.10;0.47;;;;;;;;;;5068929;28;20052;-78
2022/12/19 11:37:18;;;;;;;2.33;0.40;;;;;;;;;;5069943;28;20060;-73
2022/12/19 11:39:52;;;;;;;2.90;1.10;;;;;;;;;;5069669;28;20044;-75
2022/12/19 11:42:53;;;;;;;1.60;0.68;;;;;;;;;;5069723;28;20045;-75
2022/12/19 11:45:55;;;;;;;7.70;2.10;;;;;;;;;;5069143;28;20711;-76
2022/12/19 11:48:37;;;;;;;;;;;;;;;;;;5069429;28;20411;-75
2022/12/19 11:51:38;;;;;;;0.75;0.40;;;;;;;;;;5069566;28;20382;-77
2022/12/19 11:54:31;;;;;;;2.25;0.57;;;;;;;;;;5068778;28;20049;-73
2022/12/19 11:57:02;;;;;;;1.13;0.47;;;;;;;;;;5068637;28;20496;-75
2022/12/19 11:59:35;;;;;;;0.95;0.32;;;;;;;;;;5069700;28;20072;-74
2022/12/19 12:02:17;;;;;;;2.13;0.50;;;;;;;;;;5069264;28;20048;-74
2022/12/19 12:05:24;;;;;;;1.17;0.50;;;;;;;;;;5068923;28;20044;-75
2022/12/19 12:08:31;;;;;;;1.45;0.47;;;;;;;;;;5068549;28;20139;-74
2022/12/19 12:11:42;;;;;;;10.05;0.80;;;;;;;;;;5069067;28;20064;-84
2022/12/19 12:14:58;;;;;;;1.98;0.60;;;;;;;;;;5068779;28;20049;-72
2022/12/19 12:17:51;;;;;;;2.55;0.57;;;;;;;;;;5068121;28;20418;-72
2022/12/19 12:20:59;;;;;;;3.28;0.45;;;;;;;;;;5068761;28;20051;-74
2022/12/19 12:24:17;;;;;;;8.15;1.73;;;;;;;;;;5066921;28;20053;-74
2022/12/19 12:27:11;;;;;;;3.22;0.50;;;;;;;;;;5068780;28;20056;-76
2022/12/19 12:30:10;;;;;;;4.38;0.63;;;;;;;;;;5069098;28;20052;-73
2022/12/19 12:33:49;;;;;;;6.07;0.80;;;;;;;;;;5068575;28;20040;-74
2022/12/19 12:37:01;;;;;;;3.22;0.65;;;;;;;;;;5064208;28;20495;-74
2022/12/19 12:40:15;;;;;;;5.38;0.63;;;;;;;;;;5083213;28;20067;-75
2022/12/19 12:43:28;;;;;;;3.20;0.40;;;;;;;;;;5097029;28;20047;-73
2022/12/19 12:45:59;;;;;;;3.40;0.60;;;;;;;;;;5095021;28;20043;-74
2022/12/19 12:48:48;;;;;;;0.75;0.38;;;;;;;;;;5097225;28;20043;-74
2022/12/19 12:51:20;;;;;;;3.50;0.38;;;;;;;;;;5094852;28;20036;-74
2022/12/19 12:53:58;;;;;;;0.75;0.40;;;;;;;;;;5094077;28;20494;-77
2022/12/19 12:56:28;;;;;;;1.60;0.55;;;;;;;;;;5088677;28;20048;-74
2022/12/19 12:59:01;;;;;;;1.83;0.32;;;;;;;;;;5087970;28;20047;-74
2022/12/19 13:01:35;;;;;;;5.55;0.60;;;;;;;;;;5087838;28;20043;-74
2022/12/19 13:04:11;;;;;;;2.15;0.50;;;;;;;;;;5087982;28;20040;-74
2022/12/19 13:06:50;;;;;;;0.90;0.40;;;;;;;;;;5087825;28;20036;-74
2022/12/19 13:09:23;;;;;;;1.63;0.30;;;;;;;;;;5087789;28;20048;-74
2022/12/19 13:14:50;;;;;;;2.03;0.40;;;;;;;;;;5089337;28;20047;-75
2022/12/19 13:17:46;;;;;;;1.88;0.45;;;;;;;;;;5087891;28;20044;-74
2022/12/19 13:20:17;;;;;;;2.88;0.68;;;;;;;;;;5087545;28;20051;-75
2022/12/19 13:22:58;;;;;;;4.38;0.45;;;;;;;;;;5085395;28;20055;-75
2022/12/19 13:25:35;;;;;;;1.08;0.40;;;;;;;;;;5086189;28;20051;-74
2022/12/19 13:28:13;;;;;;;1.50;0.50;;;;;;;;;;5087519;28;20056;-73
2022/12/19 13:31:04;;;;;;;3.30;0.50;;;;;;;;;;5087137;28;20044;-73
2022/12/19 13:33:52;;;;;;;3.53;0.43;;;;;;;;;;5087135;28;20040;-74
2022/12/19 13:36:42;;;;;;;3.00;0.60;;;;;;;;;;5085500;28;20056;-74
2022/12/19 13:39:43;;;;;;;1.83;0.35;;;;;;;;;;5086724;28;20643;-72
2022/12/19 13:45:46;;;;;;;1.05;0.30;;;;;;;;;;5086498;28;20048;-73
2022/12/19 13:48:26;;;;;;;2.20;0.50;;;;;;;;;;5087293;28;20528;-72
2022/12/19 13:50:58;;;;;;;2.08;0.38;;;;;;;;;;5092818;28;20044;-72
2022/12/19 13:53:29;;;;;;;1.98;0.35;;;;;;;;;;5085753;28;20048;-73
2022/12/19 13:56:04;;;;;;;1.40;0.47;;;;;;;;;;5086499;28;20040;-74
2022/12/19 13:58:56;;;;;;;1.45;0.30;;;;;;;;;;5087676;28;20051;-74
2022/12/19 14:01:35;;;;;;;2.22;0.40;;;;;;;;;;5091636;28;20050;-74
2022/12/19 14:04:29;;;;;;;1.70;0.43;;;;;;;;;;5095081;28;20047;-73
2022/12/19 14:07:01;;;;;;;1.60;0.60;;;;;;;;;;5094003;28;20067;-77
2022/12/19 14:09:39;;;;;;;4.00;0.60;;;;;;;;;;5095241;28;20453;-74
2022/12/19 14:15:45;;;;;;;1.95;0.50;;;;;;;;;;5094093;28;20091;-73
2022/12/19 14:18:23;;;;;;;2.95;0.40;;;;;;;;;;5093309;28;20040;-73
2022/12/19 14:21:19;;;;;;;6.30;1.80;;;;;;;;;;5096439;28;20532;-74
2022/12/19 14:24:19;;;;;;;1.40;0.57;;;;;;;;;;5094652;28;20044;-75
2022/12/19 14:26:55;;;;;;;1.30;0.63;;;;;;;;;;5095720;28;20043;-73
2022/12/19 14:29:52;;;;;;;4.88;0.88;;;;;;;;;;5093720;28;20762;-75
2022/12/19 14:32:43;;;;;;;7.25;0.85;;;;;;;;;;5093892;28;20506;-74
2022/12/19 14:35:37;;;;;;;2.80;0.43;;;;;;;;;;5107030;28;20067;-73
2022/12/19 14:38:33;;;;;;;2.58;0.35;;;;;;;;;;5106266;28;20051;-75
2022/12/19 14:44:18;;;;;;;4.78;0.85;;;;;;;;;;5107190;28;20486;-73
2022/12/19 14:47:34;;;;;;;2.25;0.60;;;;;;;;;;5108212;28;20442;-74
2022/12/19 14:50:34;;;;;;;2.53;0.68;;;;;;;;;;5110869;28;20048;-82
2022/12/19 14:53:24;;;;;;;3.22;0.50;;;;;;;;;;5110668;28;20047;-75
2022/12/19 14:56:17;;;;;;;1.48;0.32;;;;;;;;;;5108861;28;20055;-73
2022/12/19 14:59:26;;;;;;;1.73;0.50;;;;;;;;;;5109255;28;20453;-73
2022/12/19 15:02:02;;;;;;;2.15;0.65;;;;;;;;;;5110930;28;20047;-73
2022/12/19 15:04:37;;;;;;;3.83;0.82;;;;;;;;;;5110582;28;20044;-74
2022/12/19 15:07:25;;;;;;;3.08;0.60;;;;;;;;;;5110632;28;20410;-73
2022/12/19 15:10:09;;;;;;;2.20;0.65;;;;;;;;;;5110561;28;20054;-73
2022/12/19 15:13:21;;;;;;;3.50;0.40;;;;;;;;;;5110344;28;20050;-75
2022/12/19 15:16:34;;;;;;;5.65;0.82;;;;;;;;;;5110381;28;20118;-74
2022/12/19 15:19:11;;;;;;;4.05;0.98;;;;;;;;;;5110646;28;20417;-78
2022/12/19 15:21:41;;;;;;;2.80;0.65;;;;;;;;;;5109086;28;20611;-75
2022/12/19 15:24:11;;;;;;;2.28;0.57;;;;;;;;;;5109916;28;20524;-74
2022/12/19 15:26:49;;;;;;;2.05;0.55;;;;;;;;;;5110002;28;20050;-74
2022/12/19 15:29:19;;;;;;;1.77;0.40;;;;;;;;;;5109989;28;20051;-73
2022/12/19 15:31:49;;;;;;;4.35;0.75;;;;;;;;;;5110008;28;20117;-75
2022/12/19 15:34:23;;;;;;;3.58;0.73;;;;;;;;;;5108211;28;20434;-74
2022/12/19 15:37:15;;;;;;;1.45;0.50;;;;;;;;;;5109200;28;20048;-77
2022/12/19 15:39:46;;;;;;;4.43;0.68;;;;;;;;;;5109466;28;20051;-74
2022/12/19 15:42:24;;;;;;;3.58;0.75;;;;;;;;;;5109493;28;20040;-74
2022/12/19 15:44:56;;;;;;;2.33;0.77;;;;;;;;;;5109114;28;20531;-72
2022/12/19 15:47:32;;;;;;;4.45;0.63;;;;;;;;;;5110434;28;20035;-74
2022/12/19 15:50:21;;;;;;;3.78;0.80;;;;;;;;;;5109450;28;20050;-75
2022/12/19 15:52:56;;;;;;;4.28;0.80;;;;;;;;;;5109131;28;20060;-73
2022/12/19 15:55:29;;;;;;;3.80;0.80;;;;;;;;;;5107984;28;20051;-74
2022/12/19 15:58:04;;;;;;;3.83;0.80;;;;;;;;;;5109217;28;20056;-72
2022/12/19 16:00:36;;;;;;;3.75;0.88;;;;;;;;;;5109479;28;20528;-75
2022/12/19 16:03:12;;;;;;;1.52;0.45;;;;;;;;;;5109081;28;20093;-74
2022/12/19 16:05:52;;;;;;;3.13;0.77;;;;;;;;;;5109524;28;20047;-75
2022/12/19 16:08:27;;;;;;;4.85;0.70;;;;;;;;;;5109357;28;20746;-74
2022/12/19 16:10:57;;;;;;;3.53;1.30;;;;;;;;;;5109410;28;20039;-74
2022/12/19 16:13:35;;;;;;;4.97;0.80;;;;;;;;;;5109351;28;20857;-74
2022/12/19 16:16:05;;;;;;;2.88;0.98;;;;;;;;;;5109801;28;20055;-73
2022/12/19 16:18:44;;;;;;;2.95;0.60;;;;;;;;;;5109405;28;20051;-74